createdAt,value
2019-02-09T00:01:16.671Z,60.92
2019-02-09T00:03:49.975Z,60.79
2019-02-09T00:06:23.258Z,61.35
2019-02-09T00:08:58.659Z,61.11
2019-02-09T00:11:31.953Z,61.73
2019-02-09T00:14:05.415Z,61.65
2019-02-09T00:16:38.702Z,61.42
2019-02-09T00:19:12.001Z,61.73
2019-02-09T00:21:45.276Z,62.36
2019-02-09T00:24:18.586Z,62.81
2019-02-09T00:26:51.942Z,62.74
2019-02-09T00:29:26.425Z,62.91
2019-02-09T00:31:59.695Z,63.13
2019-02-09T00:34:33.044Z,62.94
2019-02-09T00:37:06.342Z,63.18
2019-02-09T00:39:39.650Z,63.52
2019-02-09T00:42:12.923Z,64.70
2019-02-09T00:44:46.204Z,65.81
2019-02-09T00:47:19.467Z,65.50
2019-02-09T00:49:52.746Z,65.19
2019-02-09T00:52:25.838Z,65.85
2019-02-09T00:54:59.129Z,65.66
2019-02-09T00:57:32.402Z,66.23
2019-02-09T01:00:12.575Z,66.98
2019-02-09T01:02:46.664Z,66.60
2019-02-09T01:05:22.601Z,66.35
2019-02-09T01:07:55.852Z,65.83
2019-02-09T01:10:30.193Z,67.10
2019-02-09T01:13:03.531Z,66.17
2019-02-09T01:15:37.077Z,66.07
2019-02-09T01:18:10.356Z,65.68
2019-02-09T01:20:43.664Z,65.65
2019-02-09T01:23:16.914Z,64.72
2019-02-09T01:25:50.201Z,64.01
2019-02-09T01:28:23.477Z,63.61
2019-02-09T01:30:57.248Z,64.02
2019-02-09T01:33:30.512Z,65.21
2019-02-09T01:36:03.944Z,65.97
2019-02-09T01:38:37.213Z,67.85
2019-02-09T01:41:10.488Z,65.94
2019-02-09T01:43:43.755Z,67.85
2019-02-09T01:46:17.042Z,67.74
2019-02-09T01:48:50.295Z,68.64
2019-02-09T01:51:23.594Z,69.11
2019-02-09T01:53:56.870Z,69.10
2019-02-09T01:56:30.159Z,70.02
2019-02-09T01:59:03.448Z,71.24
2019-02-09T02:01:36.749Z,71.33
2019-02-09T02:04:10.019Z,72.64
2019-02-09T02:06:43.388Z,73.22
2019-02-09T02:09:16.774Z,74.74
2019-02-09T02:11:50.025Z,76.96
2019-02-09T02:14:23.313Z,77.05
2019-02-09T02:16:56.576Z,76.83
2019-02-09T02:19:29.860Z,77.46
2019-02-09T02:22:03.146Z,77.70
2019-02-09T02:24:36.434Z,78.57
2019-02-09T02:27:09.764Z,79.03
2019-02-09T02:29:43.038Z,79.64
2019-02-09T02:32:16.323Z,80.86
2019-02-09T02:34:49.628Z,81.06
2019-02-09T02:37:22.909Z,81.84
2019-02-09T02:39:56.184Z,82.55
2019-02-09T02:42:29.519Z,82.06
2019-02-09T02:45:02.807Z,82.70
2019-02-09T02:47:37.567Z,81.96
2019-02-09T02:50:18.798Z,82.61
2019-02-09T02:52:52.422Z,82.92
2019-02-09T02:55:27.831Z,83.27
2019-02-09T02:58:01.166Z,82.86
2019-02-09T03:00:35.132Z,82.74
2019-02-09T03:03:08.406Z,82.49
2019-02-09T03:05:41.681Z,83.05
2019-02-09T03:08:14.947Z,84.03
2019-02-09T03:10:48.216Z,84.49
2019-02-09T03:13:21.475Z,83.86
2019-02-09T03:15:54.997Z,85.24
2019-02-09T03:18:28.348Z,85.48
2019-02-09T03:21:01.643Z,84.78
2019-02-09T03:23:34.918Z,85.37
2019-02-09T03:26:08.200Z,85.27
2019-02-09T03:28:41.463Z,85.94
2019-02-09T03:31:14.745Z,84.92
2019-02-09T03:33:49.659Z,84.36
2019-02-09T03:36:22.952Z,85.18
2019-02-09T03:38:56.228Z,84.77
2019-02-09T03:41:29.509Z,84.49
2019-02-09T03:44:02.793Z,84.47
2019-02-09T03:46:36.077Z,84.05
2019-02-09T03:49:09.425Z,83.81
2019-02-09T03:51:42.766Z,84.37
2019-02-09T03:54:16.099Z,84.80
2019-02-09T03:56:49.645Z,84.05
2019-02-09T03:59:22.922Z,84.00
2019-02-09T04:01:56.279Z,83.92
2019-02-09T04:04:29.549Z,83.32
2019-02-09T04:07:02.846Z,83.45
2019-02-09T04:09:36.108Z,83.85
2019-02-09T04:12:09.410Z,83.79
2019-02-09T04:14:42.680Z,83.69
2019-02-09T04:17:15.973Z,83.91
2019-02-09T04:19:49.227Z,83.58
2019-02-09T04:22:22.519Z,83.50
2019-02-09T04:24:55.794Z,82.95
2019-02-09T04:27:29.074Z,83.12
2019-02-09T04:30:02.434Z,82.21
2019-02-09T04:32:35.718Z,82.86
2019-02-09T04:35:09.616Z,82.39
2019-02-09T04:37:42.885Z,81.99
2019-02-09T04:40:21.436Z,81.40
2019-02-09T04:42:54.869Z,81.58
2019-02-09T04:45:28.283Z,81.34
2019-02-09T04:48:01.560Z,81.06
2019-02-09T04:50:34.827Z,80.60
2019-02-09T04:53:08.119Z,79.89
2019-02-09T04:55:41.381Z,79.53
2019-02-09T04:58:14.646Z,79.67
2019-02-09T05:00:47.944Z,80.29
2019-02-09T05:03:21.253Z,79.41
2019-02-09T05:05:56.155Z,79.77
2019-02-09T05:08:29.483Z,80.79
2019-02-09T05:11:02.735Z,81.02
2019-02-09T05:13:36.058Z,81.14
2019-02-09T05:16:09.322Z,81.47
2019-02-09T05:18:42.635Z,83.10
2019-02-09T05:21:15.985Z,83.51
2019-02-09T05:23:50.343Z,83.50
2019-02-09T05:26:23.660Z,83.78
2019-02-09T05:28:56.926Z,84.72
2019-02-09T05:31:30.216Z,85.71
2019-02-09T05:34:03.503Z,85.67
2019-02-09T05:36:36.820Z,85.73
2019-02-09T05:39:11.713Z,85.76
2019-02-09T05:41:45.034Z,83.91
2019-02-09T05:44:18.273Z,83.78
2019-02-09T05:46:51.554Z,85.03
2019-02-09T05:49:24.834Z,84.61
2019-02-09T05:51:58.137Z,84.71
2019-02-09T05:54:31.430Z,84.71
2019-02-09T05:57:04.722Z,85.15
2019-02-09T05:59:38.017Z,86.76
2019-02-09T06:02:11.334Z,85.51
2019-02-09T06:04:44.630Z,85.39
2019-02-09T06:07:17.915Z,85.31
2019-02-09T06:09:51.203Z,84.76
2019-02-09T06:12:24.471Z,84.78
2019-02-09T06:14:57.760Z,84.68
2019-02-09T06:17:31.063Z,83.48
2019-02-09T06:20:07.524Z,82.57
2019-02-09T06:22:40.847Z,81.34
2019-02-09T06:25:14.263Z,80.87
2019-02-09T06:27:47.614Z,79.95
2019-02-09T06:30:23.121Z,79.33
2019-02-09T06:32:56.645Z,79.56
2019-02-09T06:35:30.205Z,79.68
2019-02-09T06:38:03.544Z,79.50
2019-02-09T06:40:36.819Z,79.89
2019-02-09T06:43:10.121Z,78.94
2019-02-09T06:45:43.379Z,78.36
2019-02-09T06:48:27.891Z,78.25
2019-02-09T06:51:02.063Z,78.75
2019-02-09T06:53:35.587Z,78.82
2019-02-09T06:56:08.935Z,77.55
2019-02-09T06:58:42.235Z,77.05
2019-02-09T07:01:15.522Z,76.60
2019-02-09T07:03:48.800Z,77.04
2019-02-09T07:06:22.071Z,76.27
2019-02-09T07:08:55.371Z,75.43
2019-02-09T07:11:28.665Z,75.12
2019-02-09T07:14:01.962Z,75.50
2019-02-09T07:16:35.227Z,75.46
2019-02-09T07:19:08.513Z,74.04
2019-02-09T07:21:41.776Z,72.99
2019-02-09T07:24:15.059Z,71.56
2019-02-09T07:26:48.353Z,71.88
2019-02-09T07:29:21.660Z,71.14
2019-02-09T07:31:56.497Z,71.30
2019-02-09T07:34:29.932Z,70.86
2019-02-09T07:37:03.204Z,70.79
2019-02-09T07:39:36.482Z,69.82
2019-02-09T07:42:09.756Z,69.53
2019-02-09T07:44:43.042Z,69.22
2019-02-09T07:47:16.312Z,68.63
2019-02-09T07:49:49.639Z,66.59
2019-02-09T07:52:22.902Z,67.64
2019-02-09T07:54:56.203Z,68.09
2019-02-09T07:57:29.514Z,66.50
2019-02-09T08:00:03.010Z,66.84
2019-02-09T08:02:36.278Z,66.12
2019-02-09T08:05:11.860Z,66.24
2019-02-09T08:07:45.430Z,65.71
2019-02-09T08:10:24.233Z,65.03
2019-02-09T08:12:57.929Z,65.05
2019-02-09T08:15:32.384Z,64.86
2019-02-09T08:18:07.379Z,62.32
2019-02-09T08:20:40.684Z,63.31
2019-02-09T08:23:14.015Z,62.11
2019-02-09T08:25:47.518Z,62.29
2019-02-09T08:28:20.794Z,61.16
2019-02-09T08:30:54.167Z,61.35
2019-02-09T08:33:27.461Z,60.73
2019-02-09T08:36:00.765Z,60.84
2019-02-09T08:38:34.060Z,60.51
2019-02-09T08:41:07.345Z,61.20
2019-02-09T08:43:40.613Z,61.12
2019-02-09T08:46:13.933Z,60.90
2019-02-09T08:48:47.214Z,61.08
2019-02-09T08:51:20.508Z,61.19
2019-02-09T08:53:53.779Z,61.69
2019-02-09T08:56:27.100Z,62.57
2019-02-09T08:59:00.430Z,63.11
2019-02-09T09:01:33.709Z,63.54
2019-02-09T09:04:07.084Z,64.81
2019-02-09T09:06:40.454Z,64.89
2019-02-09T09:09:13.745Z,64.64
2019-02-09T09:11:48.589Z,65.42
2019-02-09T09:14:21.867Z,65.21
2019-02-09T09:16:55.142Z,65.19
2019-02-09T09:19:28.446Z,65.83
2019-02-09T09:22:01.730Z,66.67
2019-02-09T09:24:35.041Z,65.39
2019-02-09T09:27:10.025Z,65.49
2019-02-09T09:29:43.335Z,65.72
2019-02-09T09:32:16.620Z,65.86
2019-02-09T09:34:49.921Z,67.32
2019-02-09T09:37:23.204Z,67.11
2019-02-09T09:39:56.505Z,67.48
2019-02-09T09:42:29.790Z,69.29
2019-02-09T09:45:04.056Z,69.62
2019-02-09T09:47:40.366Z,69.18
2019-02-09T09:50:16.705Z,69.48
2019-02-09T09:52:50.162Z,70.88
2019-02-09T09:55:23.649Z,70.08
2019-02-09T09:57:56.974Z,69.86
2019-02-09T10:00:30.572Z,69.28
2019-02-09T10:03:03.949Z,69.41
2019-02-09T10:05:37.319Z,69.28
2019-02-09T10:08:10.647Z,68.64
2019-02-09T10:10:44.036Z,69.01
2019-02-09T10:13:17.287Z,66.79
2019-02-09T10:15:50.576Z,67.13
2019-02-09T10:18:23.911Z,66.03
2019-02-09T10:20:57.228Z,66.57
2019-02-09T10:23:30.478Z,66.36
2019-02-09T10:26:03.911Z,65.91
2019-02-09T10:28:37.202Z,65.71
2019-02-09T10:31:10.480Z,64.14
2019-02-09T10:33:43.751Z,64.39
2019-02-09T10:36:17.045Z,63.90
2019-02-09T10:38:50.309Z,62.22
2019-02-09T10:41:23.589Z,62.72
2019-02-09T10:43:57.853Z,61.33
2019-02-09T10:46:31.116Z,63.20
2019-02-09T10:49:04.798Z,64.43
2019-02-09T10:51:38.185Z,65.30
2019-02-09T10:54:11.506Z,64.69
2019-02-09T10:56:44.809Z,63.19
2019-02-09T10:59:18.074Z,62.42
2019-02-09T11:01:51.441Z,61.68
2019-02-09T11:04:24.800Z,62.43
2019-02-09T11:06:58.154Z,61.36
2019-02-09T11:09:31.526Z,61.75
2019-02-09T11:12:05.274Z,60.36
2019-02-09T11:14:38.571Z,60.50
2019-02-09T11:17:11.865Z,61.34
2019-02-09T11:19:46.866Z,62.54
2019-02-09T11:22:20.163Z,63.43
2019-02-09T11:24:53.455Z,65.85
2019-02-09T11:27:26.733Z,66.43
2019-02-09T11:29:59.984Z,66.18
2019-02-09T11:32:33.314Z,67.76
2019-02-09T11:35:09.041Z,65.98
2019-02-09T11:37:42.593Z,66.22
2019-02-09T11:40:21.323Z,64.45
2019-02-09T11:42:54.697Z,66.11
2019-02-09T11:45:29.611Z,70.42
2019-02-09T11:48:03.143Z,72.60
2019-02-09T11:50:38.523Z,71.04
2019-02-09T11:53:11.811Z,70.33
2019-02-09T11:55:45.358Z,68.50
2019-02-09T11:58:18.677Z,68.40
2019-02-09T12:00:52.371Z,68.77
2019-02-09T12:03:25.684Z,68.58
2019-02-09T12:05:58.981Z,67.23
2019-02-09T12:08:32.290Z,66.38
2019-02-09T12:11:05.842Z,67.12
2019-02-09T12:13:39.139Z,67.54
2019-02-09T12:16:12.515Z,67.30
2019-02-09T12:18:45.773Z,68.52
2019-02-09T12:21:19.096Z,70.28
2019-02-09T12:23:52.393Z,72.40
2019-02-09T12:26:25.698Z,74.51
2019-02-09T12:28:58.996Z,75.98
2019-02-09T12:31:32.293Z,76.19
2019-02-09T12:34:05.579Z,77.12
2019-02-09T12:36:38.879Z,77.07
2019-02-09T12:39:12.205Z,78.71
2019-02-09T12:41:45.509Z,79.57
2019-02-09T12:44:18.769Z,80.28
2019-02-09T12:46:52.058Z,79.74
2019-02-09T12:49:25.360Z,78.36
2019-02-09T12:51:58.640Z,78.07
2019-02-09T12:54:32.108Z,78.02
2019-02-09T12:57:05.414Z,78.04
2019-02-09T12:59:38.695Z,80.21
2019-02-09T13:02:12.026Z,81.44
2019-02-09T13:04:45.307Z,79.44
2019-02-09T13:07:18.603Z,80.13
2019-02-09T13:09:51.882Z,79.29
2019-02-09T13:12:25.201Z,79.13
2019-02-09T13:14:58.477Z,77.12
2019-02-09T13:17:31.758Z,76.12
2019-02-09T13:20:09.223Z,75.07
2019-02-09T13:22:42.543Z,76.37
2019-02-09T13:25:16.061Z,75.08
2019-02-09T13:27:49.400Z,73.23
2019-02-09T13:30:27.124Z,74.32
2019-02-09T13:33:00.427Z,76.03
2019-02-09T13:35:34.991Z,75.90
2019-02-09T13:38:08.662Z,75.36
2019-02-09T13:40:41.956Z,74.81
2019-02-09T13:43:15.255Z,73.93
2019-02-09T13:45:50.656Z,72.30
2019-02-09T13:48:24.045Z,71.35
2019-02-09T13:50:57.315Z,72.51
2019-02-09T13:53:36.436Z,74.15
2019-02-09T13:56:12.196Z,79.35
2019-02-09T13:58:45.479Z,79.31
2019-02-09T14:01:19.612Z,80.21
2019-02-09T14:03:53.503Z,81.03
2019-02-09T14:06:26.768Z,80.49
2019-02-09T14:09:00.142Z,80.03
2019-02-09T14:11:33.397Z,80.39
2019-02-09T14:14:06.950Z,80.68
2019-02-09T14:16:40.273Z,80.24
2019-02-09T14:19:13.672Z,80.24
2019-02-09T14:21:46.961Z,81.05
2019-02-09T14:24:21.921Z,79.89
2019-02-09T14:26:55.291Z,78.72
2019-02-09T14:29:28.680Z,78.58
2019-02-09T14:32:04.934Z,79.19
2019-02-09T14:34:38.359Z,79.90
2019-02-09T14:37:11.634Z,78.59
2019-02-09T14:39:46.117Z,77.51
2019-02-09T14:42:19.390Z,78.39
2019-02-09T14:44:52.717Z,76.94
2019-02-09T14:47:25.999Z,75.00
2019-02-09T14:49:59.297Z,74.21
2019-02-09T14:52:32.673Z,73.32
2019-02-09T14:55:09.204Z,75.56
2019-02-09T14:57:42.481Z,75.37
2019-02-09T15:00:35.596Z,75.15
2019-02-09T15:03:09.696Z,75.90
2019-02-09T15:05:44.572Z,76.19
2019-02-09T15:08:17.725Z,74.37
2019-02-09T15:10:51.285Z,74.04
2019-02-09T15:13:24.562Z,73.87
2019-02-09T15:16:16.407Z,74.18
2019-02-09T15:18:49.733Z,74.11
2019-02-09T15:21:22.997Z,74.33
2019-02-09T15:23:56.280Z,75.21
2019-02-09T15:26:29.595Z,75.07
2019-02-09T15:29:02.877Z,74.84
2019-02-09T15:31:38.432Z,74.40
2019-02-09T15:34:11.779Z,74.92
2019-02-09T15:36:45.067Z,73.38
2019-02-09T15:39:18.348Z,73.13
2019-02-09T15:41:51.682Z,70.71
2019-02-09T15:44:24.934Z,71.94
2019-02-09T15:46:58.251Z,72.58
2019-02-09T15:49:32.315Z,72.34
2019-02-09T15:52:05.713Z,72.88
2019-02-09T15:54:38.992Z,73.78
2019-02-09T15:57:12.304Z,73.04
2019-02-09T15:59:45.579Z,74.02
2019-02-09T16:02:18.879Z,72.91
2019-02-09T16:04:52.220Z,72.95
2019-02-09T16:07:25.521Z,72.67
2019-02-09T16:09:58.821Z,73.45
2019-02-09T16:12:32.138Z,73.19
2019-02-09T16:15:11.361Z,73.11
2019-02-09T16:17:44.678Z,74.07
2019-02-09T16:20:20.011Z,74.15
2019-02-09T16:22:53.371Z,74.54
2019-02-09T16:25:26.786Z,73.70
2019-02-09T16:28:01.566Z,74.25
2019-02-09T16:30:34.849Z,75.29
2019-02-09T16:33:08.158Z,75.63
2019-02-09T16:35:41.496Z,75.84
2019-02-09T16:38:14.810Z,75.61
2019-02-09T16:40:48.096Z,76.03
2019-02-09T16:43:21.375Z,75.88
2019-02-09T16:45:55.328Z,76.43
2019-02-09T16:48:28.614Z,76.44
2019-02-09T16:51:02.010Z,76.68
2019-02-09T16:53:35.300Z,75.86
2019-02-09T16:56:08.582Z,75.81
2019-02-09T16:58:42.818Z,75.89
2019-02-09T17:01:16.101Z,76.02
2019-02-09T17:03:49.400Z,75.91
2019-02-09T17:06:23.159Z,76.27
2019-02-09T17:08:56.471Z,76.17
2019-02-09T17:11:29.733Z,75.46
2019-02-09T17:14:03.038Z,75.80
2019-02-09T17:16:36.347Z,75.65
2019-02-09T17:19:09.636Z,75.37
2019-02-09T17:21:42.987Z,74.38
2019-02-09T17:24:16.305Z,75.38
2019-02-09T17:26:49.654Z,77.06
2019-02-09T17:29:22.898Z,76.81
2019-02-09T17:31:56.243Z,77.76
2019-02-09T17:34:29.530Z,78.38
2019-02-09T17:37:02.834Z,79.04
2019-02-09T17:39:36.130Z,79.04
2019-02-09T17:42:09.494Z,78.67
2019-02-09T17:44:42.758Z,78.19
2019-02-09T17:47:16.092Z,75.62
2019-02-09T17:49:49.403Z,75.57
2019-02-09T17:52:22.739Z,75.76
2019-02-09T17:54:56.113Z,74.43
2019-02-09T17:57:29.425Z,74.25
2019-02-09T18:00:03.636Z,73.48
2019-02-09T18:02:36.961Z,73.91
2019-02-09T18:05:10.291Z,72.94
2019-02-09T18:07:43.884Z,73.38
2019-02-09T18:10:18.305Z,72.57
2019-02-09T18:12:51.613Z,72.60
2019-02-09T18:15:24.909Z,71.94
2019-02-09T18:17:58.281Z,71.93
2019-02-09T18:20:31.543Z,72.09
2019-02-09T18:23:05.248Z,72.44
2019-02-09T18:25:38.587Z,72.07
2019-02-09T18:28:11.939Z,72.71
2019-02-09T18:30:45.209Z,72.62
2019-02-09T18:33:18.661Z,72.18
2019-02-09T18:35:51.937Z,72.41
2019-02-09T18:38:25.239Z,72.32
2019-02-09T18:40:58.522Z,71.55
2019-02-09T18:43:31.880Z,71.72
2019-02-09T18:46:05.258Z,71.92
2019-02-09T18:48:40.641Z,71.24
2019-02-09T18:51:13.952Z,71.82
2019-02-09T18:53:48.350Z,71.77
2019-02-09T18:56:21.633Z,70.93
2019-02-09T18:58:56.220Z,70.30
2019-02-09T19:01:29.520Z,70.20
2019-02-09T19:04:02.796Z,70.10
2019-02-09T19:06:36.165Z,69.89
2019-02-09T19:09:09.822Z,69.37
2019-02-09T19:11:43.496Z,69.40
2019-02-09T19:14:16.798Z,69.71
2019-02-09T19:16:50.117Z,68.97
2019-02-09T19:19:23.389Z,69.31
2019-02-09T19:21:57.892Z,68.97
2019-02-09T19:24:31.277Z,69.39
2019-02-09T19:27:04.645Z,70.26
2019-02-09T19:29:37.909Z,70.24
2019-02-09T19:32:11.239Z,70.32
2019-02-09T19:34:44.524Z,70.57
2019-02-09T19:37:17.813Z,70.92
2019-02-09T19:39:51.097Z,71.25
2019-02-09T19:42:24.425Z,70.75
2019-02-09T19:44:57.711Z,71.52
2019-02-09T19:47:30.990Z,72.09
2019-02-09T19:50:07.473Z,72.43
2019-02-09T19:52:40.846Z,73.51
2019-02-09T19:55:19.661Z,73.57
2019-02-09T19:57:54.114Z,74.25
2019-02-09T20:00:39.594Z,75.05
2019-02-09T20:03:12.893Z,75.23
2019-02-09T20:05:46.172Z,74.60
2019-02-09T20:08:19.474Z,75.12
2019-02-09T20:10:52.756Z,75.43
2019-02-09T20:13:26.066Z,75.80
2019-02-09T20:15:59.336Z,76.10
2019-02-09T20:18:34.952Z,75.89
2019-02-09T20:21:08.220Z,76.01
2019-02-09T20:23:41.552Z,75.40
2019-02-09T20:26:14.817Z,75.38
2019-02-09T20:28:48.145Z,75.46
2019-02-09T20:31:23.045Z,75.42
2019-02-09T20:33:56.355Z,75.59
2019-02-09T20:36:31.025Z,74.81
2019-02-09T20:39:06.681Z,74.67
2019-02-09T20:41:39.964Z,74.70
2019-02-09T20:44:13.412Z,74.99
2019-02-09T20:46:46.689Z,75.11
2019-02-09T20:49:19.994Z,75.34
2019-02-09T20:51:53.277Z,75.14
2019-02-09T20:54:27.541Z,75.44
2019-02-09T20:57:01.880Z,76.01
2019-02-09T20:59:35.194Z,76.97
2019-02-09T21:02:08.467Z,77.83
2019-02-09T21:04:41.769Z,78.80
2019-02-09T21:07:15.150Z,79.67
2019-02-09T21:09:48.433Z,80.10
2019-02-09T21:12:21.738Z,80.14
2019-02-09T21:14:55.054Z,80.74
2019-02-09T21:17:28.357Z,80.83
2019-02-09T21:20:01.678Z,80.76
2019-02-09T21:22:35.130Z,80.36
2019-02-09T21:25:20.097Z,80.71
2019-02-09T21:27:58.101Z,80.52
2019-02-09T21:30:39.788Z,80.01
2019-02-09T21:33:12.564Z,79.70
2019-02-09T21:35:45.861Z,79.80
2019-02-09T21:38:19.223Z,79.52
2019-02-09T21:40:52.585Z,79.32
2019-02-09T21:43:25.899Z,79.34
2019-02-09T21:45:59.205Z,79.59
2019-02-09T21:48:33.076Z,79.58
2019-02-09T21:51:06.448Z,79.30
2019-02-09T21:53:39.738Z,79.10
2019-02-09T21:56:14.715Z,78.60
2019-02-09T21:58:47.993Z,78.52
2019-02-09T22:01:21.777Z,78.14
2019-02-09T22:03:55.084Z,78.30
2019-02-09T22:06:28.501Z,78.59
2019-02-09T22:09:02.074Z,78.31
2019-02-09T22:11:35.434Z,78.42
2019-02-09T22:14:09.430Z,78.45
2019-02-09T22:16:42.783Z,78.27
2019-02-09T22:19:16.013Z,78.08
2019-02-09T22:21:49.662Z,77.88
2019-02-09T22:24:23.115Z,78.21
2019-02-09T22:26:56.439Z,77.85
2019-02-09T22:29:29.721Z,77.09
2019-02-09T22:32:03.012Z,76.77
2019-02-09T22:34:36.295Z,77.11
2019-02-09T22:37:09.590Z,77.22
2019-02-09T22:39:42.901Z,77.25
2019-02-09T22:42:16.193Z,77.27
2019-02-09T22:44:49.480Z,77.55
2019-02-09T22:47:22.793Z,77.34
2019-02-09T22:49:56.120Z,77.24
2019-02-09T22:52:29.428Z,77.33
2019-02-09T22:55:02.746Z,77.39
2019-02-09T22:57:36.032Z,77.11
2019-02-09T23:00:15.275Z,77.09
2019-02-09T23:02:48.711Z,76.88
2019-02-09T23:05:27.800Z,76.66
2019-02-09T23:08:01.123Z,76.63
2019-02-09T23:10:34.420Z,76.37
2019-02-09T23:13:07.717Z,76.39
2019-02-09T23:15:41.009Z,76.22
2019-02-09T23:18:15.948Z,76.11
2019-02-09T23:20:49.245Z,75.81
2019-02-09T23:23:22.582Z,76.62
2019-02-09T23:25:55.867Z,76.49
2019-02-09T23:28:29.164Z,76.86
2019-02-09T23:31:02.446Z,76.79
2019-02-09T23:33:35.784Z,76.24
2019-02-09T23:36:16.210Z,76.51
2019-02-09T23:38:44.076Z,77.26
2019-02-09T23:41:17.379Z,76.17
2019-02-09T23:43:50.753Z,75.89
2019-02-09T23:46:24.035Z,76.01
2019-02-09T23:48:57.335Z,75.27
2019-02-09T23:51:30.649Z,75.47
2019-02-09T23:54:03.953Z,74.66
2019-02-09T23:56:37.227Z,75.36
2019-02-09T23:59:10.517Z,74.50
